createdAt,value
2024-02-24T00:00:00.181Z,4.94
2024-02-24T00:05:00.092Z,4.88
2024-02-24T00:10:00.147Z,4.81
2024-02-24T00:15:00.186Z,4.81
2024-02-24T00:20:00.136Z,4.75
2024-02-24T00:25:00.090Z,4.69
2024-02-24T00:30:00.161Z,4.63
2024-02-24T00:35:00.095Z,4.63
2024-02-24T00:40:00.155Z,4.56
2024-02-24T00:45:00.091Z,4.5
2024-02-24T00:50:00.185Z,4.38
2024-02-24T00:55:00.129Z,4.38
2024-02-24T01:00:00.292Z,4.38
2024-02-24T01:05:00.142Z,4.44
2024-02-24T01:10:00.089Z,4.38
2024-02-24T01:15:00.218Z,4.38
2024-02-24T01:20:00.150Z,4.25
2024-02-24T01:25:00.127Z,4.13
2024-02-24T01:30:00.122Z,4.06
2024-02-24T01:35:00.160Z,4.06
2024-02-24T01:40:00.115Z,4
2024-02-24T01:45:00.169Z,4
2024-02-24T01:50:00.126Z,3.88
2024-02-24T01:55:00.142Z,3.81
2024-02-24T02:00:00.192Z,3.81
2024-02-24T02:05:00.143Z,3.69
2024-02-24T02:10:00.085Z,3.69
2024-02-24T02:15:00.156Z,3.63
2024-02-24T02:20:00.122Z,3.63
2024-02-24T02:25:00.086Z,3.63
2024-02-24T02:30:00.184Z,3.56
2024-02-24T02:35:00.155Z,3.5
2024-02-24T02:40:00.147Z,3.44
2024-02-24T02:45:00.144Z,3.38
2024-02-24T02:50:00.081Z,3.31
2024-02-24T02:55:00.140Z,3.31
2024-02-24T03:00:00.211Z,3.31
2024-02-24T03:05:00.114Z,3.19
2024-02-24T03:10:00.115Z,3.06
2024-02-24T03:15:00.158Z,2.88
2024-02-24T03:20:00.120Z,2.69
2024-02-24T03:25:00.102Z,2.56
2024-02-24T03:30:00.124Z,2.38
2024-02-24T03:35:00.115Z,2.38
2024-02-24T03:40:00.244Z,2.5
2024-02-24T03:45:00.203Z,2.31
2024-02-24T03:50:00.157Z,2.25
2024-02-24T03:55:00.119Z,2.06
2024-02-24T04:00:00.189Z,2
2024-02-24T04:05:00.089Z,2.06
2024-02-24T04:10:00.153Z,2.13
2024-02-24T04:15:00.176Z,2.13
2024-02-24T04:20:00.159Z,2.13
2024-02-24T04:25:00.093Z,2.13
2024-02-24T04:30:00.215Z,2.19
2024-02-24T04:35:00.135Z,2.38
2024-02-24T04:40:00.157Z,2.44
2024-02-24T04:45:00.137Z,2.56
2024-02-24T04:50:00.113Z,2.56
2024-02-24T04:55:00.153Z,2.56
2024-02-24T05:00:00.205Z,2.56
2024-02-24T05:05:00.153Z,2.56
2024-02-24T05:10:00.098Z,2.63
2024-02-24T05:15:00.151Z,2.56
2024-02-24T05:20:00.159Z,2.56
2024-02-24T05:25:00.114Z,2.63
2024-02-24T05:30:00.147Z,2.63
2024-02-24T05:35:00.148Z,2.69
2024-02-24T05:40:00.172Z,2.63
2024-02-24T05:45:00.184Z,2.75
2024-02-24T05:50:00.193Z,2.88
2024-02-24T05:55:00.167Z,2.94
2024-02-24T06:00:00.193Z,3
2024-02-24T06:05:00.128Z,2.94
2024-02-24T06:10:00.093Z,2.81
2024-02-24T06:15:00.154Z,2.81
2024-02-24T06:20:00.177Z,2.75
2024-02-24T06:25:00.082Z,2.69
2024-02-24T06:30:00.087Z,2.81
2024-02-24T06:35:00.230Z,3
2024-02-24T06:40:00.237Z,3.06
2024-02-24T06:45:00.158Z,3.19
2024-02-24T06:50:00.114Z,3.31
2024-02-24T06:55:00.116Z,3.38
2024-02-24T07:00:00.221Z,3.38
2024-02-24T07:05:00.107Z,3.44
2024-02-24T07:10:00.146Z,3.5
2024-02-24T07:15:00.160Z,3.63
2024-02-24T07:20:00.191Z,3.81
2024-02-24T07:25:00.207Z,4.06
2024-02-24T07:30:00.246Z,4.88
2024-02-24T07:35:00.232Z,8.13
2024-02-24T07:40:00.174Z,10.31
2024-02-24T07:45:00.171Z,9.5
2024-02-24T07:50:00.125Z,8.63
2024-02-24T07:55:00.183Z,8.25
2024-02-24T08:00:00.239Z,7.94
2024-02-24T08:05:00.118Z,8.94
2024-02-24T08:10:00.092Z,9.31
2024-02-24T08:15:00.167Z,9.5
2024-02-24T08:20:00.222Z,11.81
2024-02-24T08:25:00.146Z,13.75
2024-02-24T08:30:00.186Z,14.19
2024-02-24T08:35:00.247Z,13.31
2024-02-24T08:40:00.155Z,13.19
2024-02-24T08:45:00.189Z,14.69
2024-02-24T08:50:00.182Z,16.94
2024-02-24T08:55:00.142Z,18.38
2024-02-24T09:00:00.234Z,19.19
2024-02-24T09:05:00.093Z,18.31
2024-02-24T09:10:03.281Z,17.38
2024-02-24T09:15:00.176Z,16.88
2024-02-24T09:20:00.152Z,15.69
2024-02-24T09:25:00.142Z,14.5
2024-02-24T09:30:00.246Z,13.69
2024-02-24T09:35:00.181Z,12.94
2024-02-24T09:40:01.972Z,12.31
2024-02-24T09:45:00.305Z,11.69
2024-02-24T09:50:00.120Z,11.5
2024-02-24T09:55:00.120Z,11.75
2024-02-24T10:00:00.238Z,11.81
2024-02-24T10:05:00.231Z,11.69
2024-02-24T10:10:00.126Z,12.75
2024-02-24T10:15:00.199Z,14.38
2024-02-24T10:20:00.178Z,17.25
2024-02-24T10:25:00.081Z,19.5
2024-02-24T10:30:00.170Z,19.69
2024-02-24T10:35:00.158Z,18.5
2024-02-24T10:40:00.108Z,17.25
2024-02-24T10:45:00.209Z,17.06
2024-02-24T10:50:00.126Z,18.06
2024-02-24T10:55:00.152Z,17.75
2024-02-24T11:00:00.179Z,17.13
2024-02-24T11:05:00.144Z,15.44
2024-02-24T11:10:00.079Z,14.13
2024-02-24T11:15:00.173Z,13.56
2024-02-24T11:20:00.211Z,12.88
2024-02-24T11:25:00.153Z,12.69
2024-02-24T11:30:00.547Z,12.81
2024-02-24T11:35:00.178Z,12.75
2024-02-24T11:40:00.195Z,12.81
2024-02-24T11:45:00.280Z,12.81
2024-02-24T11:50:00.127Z,12.63
2024-02-24T11:55:00.147Z,12.44
2024-02-24T12:00:00.292Z,12.19
2024-02-24T12:05:00.102Z,12.25
2024-02-24T12:10:00.125Z,12.38
2024-02-24T12:15:00.150Z,12.19
2024-02-24T12:20:00.174Z,12
2024-02-24T12:25:00.123Z,12
2024-02-24T12:30:00.184Z,11.88
2024-02-24T12:35:00.172Z,11.81
2024-02-24T12:40:00.180Z,11.63
2024-02-24T12:45:00.185Z,11.56
2024-02-24T12:50:00.190Z,11.31
2024-02-24T12:55:00.142Z,11.19
2024-02-24T13:00:00.295Z,11.06
2024-02-24T13:05:00.131Z,11.06
2024-02-24T13:10:00.138Z,11
2024-02-24T13:15:00.182Z,11.19
2024-02-24T13:20:00.199Z,11.63
2024-02-24T13:25:00.138Z,11.88
2024-02-24T13:30:00.166Z,11.75
2024-02-24T13:35:00.170Z,11.56
2024-02-24T13:40:00.184Z,11.38
2024-02-24T13:45:00.279Z,11.25
2024-02-24T13:50:00.113Z,11.25
2024-02-24T13:55:00.175Z,11
2024-02-24T14:00:00.344Z,11.06
2024-02-24T14:05:00.144Z,10.94
2024-02-24T14:10:00.144Z,10.63
2024-02-24T14:15:00.258Z,10.38
2024-02-24T14:20:03.262Z,10.13
2024-02-24T14:25:00.166Z,10.19
2024-02-24T14:30:00.126Z,10.25
2024-02-24T14:35:00.124Z,10.38
2024-02-24T14:40:00.131Z,10.31
2024-02-24T14:45:00.201Z,10.44
2024-02-24T14:50:00.121Z,10.19
2024-02-24T14:55:00.154Z,10
2024-02-24T15:00:00.203Z,9.88
2024-02-24T15:05:00.130Z,9.81
2024-02-24T15:10:00.082Z,9.69
2024-02-24T15:15:00.231Z,9.63
2024-02-24T15:20:02.380Z,9.56
2024-02-24T15:25:00.090Z,9.5
2024-02-24T15:30:00.256Z,9.5
2024-02-24T15:35:00.196Z,9.5
2024-02-24T15:40:00.175Z,9.5
2024-02-24T15:45:00.266Z,9.5
2024-02-24T15:50:00.138Z,9.38
2024-02-24T15:55:00.163Z,9.31
2024-02-24T16:00:00.367Z,9.31
2024-02-24T16:05:00.106Z,9.31
2024-02-24T16:10:00.118Z,9.19
2024-02-24T16:15:00.211Z,9.06
2024-02-24T16:20:00.300Z,9
2024-02-24T16:25:00.132Z,8.88
2024-02-24T16:30:00.279Z,8.88
2024-02-24T16:35:00.193Z,8.88
2024-02-24T16:40:00.189Z,8.88
2024-02-24T16:45:00.203Z,8.88
2024-02-24T16:50:00.155Z,8.69
2024-02-24T16:55:00.167Z,8.56
2024-02-24T17:00:00.364Z,8.44
2024-02-24T17:05:00.159Z,8.25
2024-02-24T17:10:00.076Z,8.19
2024-02-24T17:15:00.202Z,8.06
2024-02-24T17:20:00.189Z,8
2024-02-24T17:25:00.122Z,7.88
2024-02-24T17:30:00.198Z,7.75
2024-02-24T17:35:00.218Z,7.63
2024-02-24T17:40:00.229Z,7.5
2024-02-24T17:45:00.169Z,7.44
2024-02-24T17:50:00.250Z,7.38
2024-02-24T17:55:00.161Z,7.25
2024-02-24T18:00:00.279Z,7.31
2024-02-24T18:05:00.141Z,7.25
2024-02-24T18:10:00.178Z,7.19
2024-02-24T18:15:00.176Z,7.19
2024-02-24T18:20:00.174Z,7.13
2024-02-24T18:25:00.182Z,7.13
2024-02-24T18:30:02.884Z,7.06
2024-02-24T18:35:00.144Z,6.94
2024-02-24T18:40:00.133Z,6.88
2024-02-24T18:45:00.172Z,6.94
2024-02-24T18:50:00.071Z,6.94
2024-02-24T18:55:00.192Z,6.81
2024-02-24T19:00:00.334Z,6.75
2024-02-24T19:05:00.210Z,6.75
2024-02-24T19:10:00.159Z,6.75
2024-02-24T19:15:00.272Z,6.75
2024-02-24T19:20:00.094Z,6.75
2024-02-24T19:25:00.158Z,6.75
2024-02-24T19:30:00.243Z,6.75
2024-02-24T19:35:00.201Z,6.75
2024-02-24T19:40:00.147Z,6.88
2024-02-24T19:45:00.226Z,7
2024-02-24T19:50:00.119Z,7.06
2024-02-24T19:55:00.142Z,7.13
2024-02-24T20:00:00.455Z,7.13
2024-02-24T20:05:00.195Z,7.13
2024-02-24T20:15:00.180Z,7.19
2024-02-24T20:20:00.269Z,7.13
2024-02-24T20:25:00.144Z,7.06
2024-02-24T20:30:00.332Z,6.88
2024-02-24T20:35:00.175Z,6.81
2024-02-24T20:40:00.116Z,6.75
2024-02-24T20:45:00.319Z,6.69
2024-02-24T20:50:00.176Z,6.69
2024-02-24T20:55:00.133Z,6.63
2024-02-24T21:00:00.304Z,6.63
2024-02-24T21:05:00.115Z,6.56
2024-02-24T21:10:00.172Z,6.56
2024-02-24T21:15:00.200Z,6.63
2024-02-24T21:20:00.278Z,6.5
2024-02-24T21:25:00.105Z,6.5
2024-02-24T21:30:00.432Z,6.44
2024-02-24T21:35:00.222Z,6.31
2024-02-24T21:40:00.171Z,6.19
2024-02-24T21:45:00.256Z,6.06
2024-02-24T21:50:00.133Z,5.94
2024-02-24T21:55:00.172Z,5.88
2024-02-24T22:00:00.188Z,5.94
2024-02-24T22:05:00.102Z,5.94
2024-02-24T22:10:00.096Z,5.94
2024-02-24T22:15:00.234Z,6
2024-02-24T22:20:00.234Z,6.19
2024-02-24T22:25:00.076Z,6.31
2024-02-24T22:30:04.820Z,6.44
2024-02-24T22:35:00.149Z,6.56
2024-02-24T22:40:00.128Z,6.69
2024-02-24T22:45:00.232Z,6.75
2024-02-24T22:50:00.099Z,6.81
2024-02-24T22:55:00.118Z,6.88
2024-02-24T23:00:00.159Z,6.94
2024-02-24T23:05:00.175Z,7.06
2024-02-24T23:10:00.163Z,7.06
2024-02-24T23:15:00.147Z,7.06
2024-02-24T23:20:00.157Z,7.13
2024-02-24T23:25:00.156Z,7.19
2024-02-24T23:30:00.330Z,7.06
2024-02-24T23:35:00.166Z,6.94
2024-02-24T23:40:00.128Z,6.81
2024-02-24T23:45:00.230Z,6.69
2024-02-24T23:50:00.105Z,6.63
2024-02-24T23:55:00.091Z,6.56
